createdAt,value
2024-05-09T00:01:49.743Z,12.68
2024-05-09T00:06:02.171Z,13.80
2024-05-09T00:10:22.634Z,13.27
2024-05-09T00:14:41.377Z,12.80
2024-05-09T00:18:53.892Z,13.27
2024-05-09T00:23:07.433Z,14.73
2024-05-09T00:27:20.702Z,15.82
2024-05-09T00:31:32.925Z,14.55
2024-05-09T00:35:45.114Z,12.90
2024-05-09T00:39:57.345Z,12.98
2024-05-09T00:44:09.614Z,15.38
2024-05-09T00:48:21.994Z,11.55
2024-05-09T00:52:34.451Z,13.43
2024-05-09T00:56:46.656Z,13.57
2024-05-09T01:01:02.068Z,15.13
2024-05-09T01:05:14.529Z,16.67
2024-05-09T01:09:26.846Z,15.63
2024-05-09T01:13:39.082Z,16.38
2024-05-09T01:17:51.817Z,16.50
2024-05-09T01:22:04.587Z,17.10
2024-05-09T01:26:17.040Z,16.42
2024-05-09T01:30:34.688Z,18.83
2024-05-09T01:34:49.172Z,19.25
2024-05-09T01:39:01.407Z,20.88
2024-05-09T01:43:13.693Z,18.20
2024-05-09T01:47:26.150Z,18.65
2024-05-09T01:51:38.479Z,18.77
2024-05-09T01:55:50.718Z,19.90
2024-05-09T02:00:06.003Z,18.20
2024-05-09T02:04:22.677Z,22.60
2024-05-09T02:08:35.107Z,21.73
2024-05-09T02:12:47.398Z,22.42
2024-05-09T02:16:59.645Z,19.65
2024-05-09T02:21:11.944Z,17.27
2024-05-09T02:25:26.996Z,18.02
2024-05-09T02:29:39.219Z,17.77
2024-05-09T02:33:52.286Z,17.35
2024-05-09T02:38:04.986Z,21.15
2024-05-09T02:42:17.320Z,17.42
2024-05-09T02:46:29.501Z,17.45
2024-05-09T02:50:42.348Z,18.85
2024-05-09T02:54:54.579Z,20.48
2024-05-09T02:59:06.794Z,18.17
2024-05-09T03:03:19.383Z,20.10
2024-05-09T03:07:31.797Z,21.25
2024-05-09T03:11:44.118Z,19.63
2024-05-09T03:15:56.361Z,17.70
2024-05-09T03:20:17.382Z,23.77
2024-05-09T03:24:35.705Z,18.80
2024-05-09T03:28:47.949Z,18.95
2024-05-09T03:33:00.347Z,16.30
2024-05-09T03:37:14.239Z,15.80
2024-05-09T03:41:26.482Z,16.75
2024-05-09T03:45:38.730Z,21.02
2024-05-09T03:49:50.918Z,15.23
2024-05-09T03:54:03.061Z,17.90
2024-05-09T03:58:15.415Z,19.92
2024-05-09T04:02:27.686Z,16.20
2024-05-09T04:06:39.890Z,19.87
2024-05-09T04:10:52.090Z,14.43
2024-05-09T04:15:04.632Z,21.85
2024-05-09T04:19:17.016Z,19.08
2024-05-09T04:23:29.265Z,17.92
2024-05-09T04:27:41.489Z,19.00
2024-05-09T04:31:53.807Z,20.10
2024-05-09T04:36:07.287Z,24.25
2024-05-09T04:40:28.080Z,22.17
2024-05-09T04:44:45.428Z,23.90
2024-05-09T04:48:57.672Z,20.08
2024-05-09T04:53:11.320Z,21.50
2024-05-09T04:57:23.920Z,19.83
2024-05-09T05:01:36.249Z,23.45
2024-05-09T05:05:48.677Z,21.17
2024-05-09T05:10:01.111Z,18.30
2024-05-09T05:14:13.392Z,16.88
2024-05-09T05:18:27.305Z,18.48
2024-05-09T05:22:43.081Z,17.13
2024-05-09T05:26:55.313Z,17.88
2024-05-09T05:31:07.594Z,16.02
2024-05-09T05:35:19.864Z,20.13
2024-05-09T05:39:32.103Z,15.68
2024-05-09T05:43:44.383Z,17.95
2024-05-09T05:47:56.924Z,16.52
2024-05-09T05:52:12.348Z,15.05
2024-05-09T05:56:24.642Z,15.57
2024-05-09T06:00:39.293Z,12.68
2024-05-09T06:04:53.039Z,15.02
2024-05-09T06:09:05.393Z,11.43
2024-05-09T06:13:17.592Z,12.68
2024-05-09T06:17:29.992Z,13.32
2024-05-09T06:21:42.334Z,11.93
2024-05-09T06:25:54.674Z,10.48
2024-05-09T06:30:09.950Z,11.07
2024-05-09T06:34:25.425Z,12.10
2024-05-09T06:38:38.147Z,11.63
2024-05-09T06:42:50.534Z,15.57
2024-05-09T06:47:02.892Z,13.38
2024-05-09T06:51:40.613Z,10.93
2024-05-09T06:55:53.068Z,11.05
2024-05-09T07:00:08.222Z,20.30
2024-05-09T07:04:22.502Z,11.65
2024-05-09T07:08:34.889Z,15.45
2024-05-09T07:12:47.223Z,10.00
2024-05-09T07:16:59.745Z,13.18
2024-05-09T07:21:12.125Z,11.50
2024-05-09T07:25:25.283Z,12.82
2024-05-09T07:29:38.660Z,10.95
2024-05-09T07:33:51.222Z,11.88
2024-05-09T07:38:03.539Z,10.65
2024-05-09T07:42:15.892Z,11.77
2024-05-09T07:47:36.874Z,9.93
2024-05-09T07:53:00.888Z,10.18
2024-05-09T07:55:34.803Z,9.95
2024-05-09T07:59:47.024Z,9.18
2024-05-09T08:03:59.347Z,10.93
2024-05-09T08:08:11.639Z,8.70
2024-05-09T08:12:23.830Z,9.52
2024-05-09T08:16:36.054Z,7.97
2024-05-09T08:20:49.765Z,7.60
2024-05-09T08:25:02.004Z,6.43
2024-05-09T08:29:14.739Z,6.38
2024-05-09T08:33:27.087Z,8.00
2024-05-09T08:37:40.687Z,7.53
2024-05-09T08:41:53.128Z,8.23
2024-05-09T08:46:07.370Z,8.63
2024-05-09T08:50:32.055Z,9.10
2024-05-09T08:54:50.722Z,9.98
2024-05-09T08:59:04.946Z,7.20
2024-05-09T09:03:25.320Z,8.07
2024-05-09T09:07:40.517Z,7.40
2024-05-09T09:11:52.778Z,8.95
2024-05-09T09:16:05.289Z,8.48
2024-05-09T09:20:23.254Z,7.05
2024-05-09T09:24:41.406Z,8.20
2024-05-09T09:28:53.763Z,8.27
2024-05-09T09:33:06.859Z,7.47
2024-05-09T09:37:23.823Z,7.18
2024-05-09T09:41:38.473Z,8.93
2024-05-09T09:45:53.223Z,10.18
2024-05-09T09:50:12.111Z,7.45
2024-05-09T09:54:29.934Z,6.78
2024-05-09T09:58:44.099Z,6.47
2024-05-09T10:02:56.364Z,6.47
2024-05-09T10:07:11.111Z,7.75
2024-05-09T10:11:24.859Z,6.85
2024-05-09T10:15:52.815Z,9.85
2024-05-09T10:20:14.461Z,6.82
2024-05-09T10:24:47.833Z,7.15
2024-05-09T10:29:03.147Z,7.22
2024-05-09T10:33:20.356Z,14.48
2024-05-09T10:37:33.278Z,6.75
2024-05-09T10:41:45.475Z,6.78
2024-05-09T10:45:57.726Z,7.93
2024-05-09T10:50:18.372Z,7.15
2024-05-09T10:54:38.074Z,8.10
2024-05-09T10:58:53.417Z,8.73
2024-05-09T11:03:06.111Z,7.80
2024-05-09T11:07:21.438Z,8.55
2024-05-09T11:11:34.005Z,8.48
2024-05-09T11:15:46.249Z,10.75
2024-05-09T11:19:58.511Z,9.25
2024-05-09T11:24:11.780Z,9.35
2024-05-09T11:28:26.391Z,7.90
2024-05-09T11:32:38.705Z,11.32
2024-05-09T11:36:51.031Z,8.88
2024-05-09T11:41:04.134Z,8.35
2024-05-09T11:45:16.498Z,7.88
2024-05-09T11:49:28.859Z,8.50
2024-05-09T11:53:41.104Z,9.25
2024-05-09T11:57:53.442Z,9.50
2024-05-09T12:02:05.852Z,8.18
2024-05-09T12:06:18.458Z,10.63
2024-05-09T12:10:34.135Z,7.55
2024-05-09T12:14:48.014Z,9.85
2024-05-09T12:19:00.208Z,11.55
2024-05-09T12:23:12.420Z,9.95
2024-05-09T12:27:24.617Z,8.23
2024-05-09T12:31:36.841Z,7.53
2024-05-09T12:35:50.907Z,8.85
2024-05-09T12:40:04.927Z,7.75
2024-05-09T12:44:18.883Z,11.43
2024-05-09T12:48:31.212Z,8.75
2024-05-09T12:52:43.449Z,7.40
2024-05-09T12:56:55.623Z,7.60
2024-05-09T13:01:10.926Z,8.48
2024-05-09T13:05:23.426Z,8.88
2024-05-09T13:09:36.020Z,8.70
2024-05-09T13:13:48.275Z,8.65
2024-05-09T13:18:03.102Z,6.57
2024-05-09T13:22:16.051Z,9.23
2024-05-09T13:26:28.274Z,7.75
2024-05-09T13:30:42.131Z,7.20
2024-05-09T13:34:54.902Z,8.30
2024-05-09T13:39:07.112Z,5.75
2024-05-09T13:43:21.828Z,6.88
2024-05-09T13:47:34.515Z,7.43
2024-05-09T13:51:46.777Z,8.38
2024-05-09T13:55:58.976Z,8.55
2024-05-09T14:00:22.917Z,8.18
2024-05-09T14:04:43.996Z,8.52
2024-05-09T14:08:56.350Z,6.15
2024-05-09T14:13:08.612Z,8.30
2024-05-09T14:17:21.128Z,7.78
2024-05-09T14:21:33.434Z,7.05
2024-05-09T14:25:48.179Z,8.15
2024-05-09T14:30:04.132Z,9.45
2024-05-09T14:34:18.363Z,7.47
2024-05-09T14:38:30.765Z,6.55
2024-05-09T14:42:43.033Z,9.18
2024-05-09T14:46:55.236Z,6.78
2024-05-09T14:51:07.477Z,8.43
2024-05-09T14:55:19.796Z,10.40
2024-05-09T14:59:32.013Z,6.93
2024-05-09T15:03:44.492Z,6.28
2024-05-09T15:07:58.230Z,7.95
2024-05-09T15:12:10.443Z,9.38
2024-05-09T15:17:14.209Z,6.57
2024-05-09T15:21:26.408Z,7.20
2024-05-09T15:25:38.619Z,8.18
2024-05-09T15:29:50.823Z,9.13
2024-05-09T15:34:03.204Z,9.07
2024-05-09T15:38:16.775Z,9.27
2024-05-09T15:42:28.996Z,9.00
2024-05-09T15:46:41.286Z,8.77
2024-05-09T15:50:53.500Z,10.57
2024-05-09T15:55:06.596Z,7.47
2024-05-09T15:59:18.924Z,8.43
2024-05-09T16:03:31.379Z,17.50
2024-05-09T16:07:43.708Z,8.85
2024-05-09T16:11:56.269Z,8.57
2024-05-09T16:16:08.776Z,11.88
2024-05-09T16:26:32.832Z,8.10
2024-05-09T17:00:47.287Z,9.02
2024-05-09T17:05:03.302Z,11.18
2024-05-09T17:32:37.018Z,10.48
2024-05-09T17:36:49.386Z,8.32
2024-05-09T17:41:01.677Z,10.40
2024-05-09T17:45:15.142Z,9.98
2024-05-09T17:49:27.476Z,10.02
2024-05-09T17:53:43.160Z,10.43
2024-05-09T17:57:55.473Z,9.02
2024-05-09T18:02:08.049Z,8.95
2024-05-09T18:06:20.375Z,8.75
2024-05-09T18:10:37.007Z,9.10
2024-05-09T18:14:51.609Z,9.68
2024-05-09T18:19:04.134Z,10.05
2024-05-09T18:23:18.311Z,9.85
2024-05-09T18:27:31.217Z,12.55
2024-05-09T18:31:43.594Z,10.38
2024-05-09T18:35:55.887Z,10.13
2024-05-09T18:40:12.196Z,8.27
2024-05-09T18:44:31.441Z,8.15
2024-05-09T18:48:43.885Z,8.55
2024-05-09T18:52:56.308Z,15.63
2024-05-09T18:57:08.798Z,11.52
2024-05-09T19:01:21.230Z,10.15
2024-05-09T19:05:35.907Z,12.43
2024-05-09T19:09:55.029Z,8.60
2024-05-09T19:14:07.706Z,10.35
2024-05-09T19:18:20.317Z,13.90
2024-05-09T19:22:32.769Z,10.70
2024-05-09T19:26:45.904Z,13.00
2024-05-09T19:30:58.373Z,11.90
2024-05-09T19:35:10.759Z,12.80
2024-05-09T19:39:24.007Z,14.15
2024-05-09T19:43:36.575Z,14.75
2024-05-09T19:47:49.350Z,12.20
2024-05-09T19:52:01.873Z,15.52
2024-05-09T19:56:14.379Z,17.98
2024-05-09T20:00:32.809Z,14.32
2024-05-09T20:04:48.973Z,16.38
2024-05-09T20:09:01.372Z,14.73
2024-05-09T20:13:14.319Z,17.17
2024-05-09T20:17:26.708Z,15.63
2024-05-09T20:21:43.160Z,13.77
2024-05-09T20:25:55.540Z,16.23
2024-05-09T20:30:12.221Z,15.73
2024-05-09T20:34:27.133Z,15.63
2024-05-09T20:38:39.439Z,15.18
2024-05-09T20:42:51.726Z,19.30
2024-05-09T20:47:04.088Z,17.85
2024-05-09T20:51:16.403Z,17.40
2024-05-09T20:55:29.606Z,20.80
2024-05-09T20:59:41.871Z,17.00
2024-05-09T21:03:54.372Z,18.48
2024-05-09T21:08:07.227Z,19.33
2024-05-09T21:12:19.479Z,19.17
2024-05-09T21:16:34.156Z,20.55
2024-05-09T21:20:46.580Z,16.38
2024-05-09T21:24:58.917Z,17.92
2024-05-09T21:29:12.156Z,18.58
2024-05-09T21:33:24.753Z,16.92
2024-05-09T21:37:44.339Z,16.67
2024-05-09T21:42:01.689Z,15.82
2024-05-09T21:46:14.022Z,21.20
2024-05-09T21:50:36.298Z,17.33
2024-05-09T21:54:52.595Z,18.52
2024-05-09T21:59:04.873Z,16.63
2024-05-09T22:03:17.341Z,16.38
2024-05-09T22:07:29.800Z,15.15
2024-05-09T22:11:42.187Z,15.48
2024-05-09T22:15:54.566Z,14.80
2024-05-09T22:20:14.720Z,15.73
2024-05-09T22:24:30.680Z,17.98
2024-05-09T22:28:43.147Z,15.20
2024-05-09T22:32:55.555Z,16.10
2024-05-09T22:37:07.996Z,14.35
2024-05-09T22:41:20.331Z,14.93
2024-05-09T22:45:32.865Z,14.45
2024-05-09T22:49:45.321Z,15.60
2024-05-09T22:53:57.736Z,15.35
2024-05-09T22:58:10.176Z,15.70
2024-05-09T23:02:22.577Z,17.38
2024-05-09T23:06:34.947Z,18.10
2024-05-09T23:10:47.487Z,16.42
2024-05-09T23:15:00.104Z,16.50
2024-05-09T23:19:12.513Z,15.63
2024-05-09T23:23:24.837Z,18.98
2024-05-09T23:27:37.309Z,15.10
2024-05-09T23:31:49.831Z,14.80
2024-05-09T23:36:02.689Z,14.15
2024-05-09T23:40:18.827Z,16.10
2024-05-09T23:44:35.031Z,14.85
2024-05-09T23:48:47.505Z,16.33
2024-05-09T23:52:59.906Z,19.77
2024-05-09T23:57:15.226Z,16.73
